»·PEaware :: N6157J KVCV-KSNA

N6157J :: KVCV-KSNA

FLIGHT INFORMATION

Flight Status: Arrived
Operator: Privately registered:
United States
More flights under this callsign
Pilot: Corey H. (27127)
Aircraft: CESSNA 172 SKYHAWK
(C172)
More flights by this aircraft type
Origin: KVCV Socal Logistics
United States
Destination: KSNA John Wayne-Orange Co
United States
More flights between these airports :: More routes between these airports
Route: +ETHER APLES V442 PDZ V8 SLI
File this flight plan on PilotEdge
Remarks:
Altitude:
(Current/Filed)
10,000ft
Speed:
(Current/Filed)
110kts
Departed: 03-Sep-20 03:33 PM
Arrived: 03-Sep-20 04:26 PM
Distance/Time
Traveled:
60nm/0:53
Distance/Time
To Go:
Arrived

Flight Plot

Page will automatically refresh every two minutes.

Flight plan parsing failed; only flown route is shown


Map Options




Map Legend


Flown Route
Filed Route
Departure Airport
Arrival Airport
Navaid (VOR, NDB)
Fix

Horizontal Profiles

Position Reports

Time Latitude Longitude Heading Altitude Ground
Speed
03-Sep-20 15:07 34.588333 -117.376341 313 2871ft 0kts
03-Sep-20 15:08 34.588333 -117.376341 313 2871ft 0kts
03-Sep-20 15:09 34.588333 -117.376341 313 2871ft 0kts
03-Sep-20 15:10 34.588333 -117.376341 313 2871ft 0kts
03-Sep-20 15:11 34.588333 -117.376341 313 2871ft 0kts
03-Sep-20 15:12 34.588333 -117.376341 313 2871ft 0kts
03-Sep-20 15:13 34.588333 -117.376341 313 2871ft 0kts
03-Sep-20 15:14 34.588333 -117.376341 313 2871ft 0kts
03-Sep-20 15:15 34.588333 -117.376341 313 2871ft 0kts
03-Sep-20 15:16 34.588333 -117.376341 313 2871ft 0kts
03-Sep-20 15:17 34.588333 -117.376341 313 2871ft 0kts
03-Sep-20 15:18 34.588333 -117.376341 313 2871ft 0kts
03-Sep-20 15:19 34.588333 -117.376341 313 2871ft 0kts
03-Sep-20 15:21 34.588333 -117.376341 313 2871ft 0kts
03-Sep-20 15:22 34.588333 -117.376341 313 2871ft 0kts
03-Sep-20 15:23 34.588333 -117.376341 313 2871ft 0kts
03-Sep-20 15:24 34.588333 -117.376341 313 2871ft 0kts
03-Sep-20 15:25 34.588333 -117.376341 313 2871ft 0kts
03-Sep-20 15:26 34.588418 -117.376450 311 2871ft 7kts
03-Sep-20 15:27 34.591550 -117.373635 43 2865ft 12kts
03-Sep-20 15:28 34.592846 -117.370209 90 2859ft 16kts
03-Sep-20 15:29 34.594485 -117.367693 8 2853ft 22kts
03-Sep-20 15:30 34.599064 -117.366603 10 2843ft 0kts
03-Sep-20 15:31 34.599064 -117.366603 10 2843ft 0kts
03-Sep-20 15:32 34.600246 -117.366673 302 2841ft 9kts
03-Sep-20 15:33 34.587507 -117.381468 221 3324ft 86kts
03-Sep-20 15:34 34.576185 -117.404889 265 4191ft 87kts
03-Sep-20 15:35 34.572217 -117.434027 263 5003ft 88kts
03-Sep-20 15:36 34.571004 -117.463842 265 5761ft 89kts
03-Sep-20 15:37 34.581830 -117.472610 37 6159ft 94kts
03-Sep-20 15:38 34.601145 -117.453314 37 6909ft 88kts
03-Sep-20 15:38 34.617546 -117.437823 37 7451ft 89kts
03-Sep-20 15:40 34.627134 -117.409088 108 8163ft 90kts
03-Sep-20 15:41 34.617036 -117.380718 108 8712ft 93kts
03-Sep-20 15:41 34.612248 -117.355309 97 9176ft 93kts
03-Sep-20 15:43 34.607414 -117.319035 104 9771ft 94kts
03-Sep-20 15:43 34.602690 -117.301087 111 10025ft 98kts
03-Sep-20 15:44 34.601544 -117.297729 113 10042ft 101kts
03-Sep-20 15:45 34.593671 -117.276801 114 10154ft 113kts
03-Sep-20 15:46 34.579402 -117.239374 116 10192ft 128kts
03-Sep-20 15:47 34.564890 -117.199091 111 10185ft 129kts
03-Sep-20 15:48 34.551352 -117.157974 112 10154ft 132kts
03-Sep-20 15:49 34.522035 -117.142770 206 10197ft 128kts
03-Sep-20 15:50 34.491626 -117.167118 219 10174ft 130kts
03-Sep-20 15:51 34.462358 -117.193200 209 10165ft 131kts
03-Sep-20 15:52 34.430939 -117.215324 206 10175ft 130kts
03-Sep-20 15:53 34.399265 -117.237263 209 10178ft 131kts
03-Sep-20 15:54 34.367767 -117.259109 208 10183ft 130kts
03-Sep-20 15:55 34.335468 -117.278768 207 10212ft 129kts
03-Sep-20 15:56 34.303671 -117.300118 210 10199ft 130kts
03-Sep-20 15:57 34.273158 -117.324098 211 10191ft 132kts
03-Sep-20 15:58 34.240110 -117.343531 206 10177ft 129kts
03-Sep-20 15:59 34.206135 -117.363191 201 10035ft 130kts
03-Sep-20 16:00 34.174452 -117.381192 207 10199ft 127kts
03-Sep-20 16:01 34.141412 -117.400276 201 10096ft 134kts
03-Sep-20 16:02 34.131105 -117.405468 203 10152ft 129kts
03-Sep-20 16:03 34.100282 -117.421953 201 10093ft 134kts
03-Sep-20 16:04 34.066722 -117.439596 206 10108ft 132kts
03-Sep-20 16:05 34.033960 -117.457783 207 9889ft 133kts
03-Sep-20 16:06 34.002641 -117.479429 209 9115ft 128kts
03-Sep-20 16:07 33.971858 -117.501260 217 8227ft 128kts
03-Sep-20 16:08 33.940812 -117.521710 208 7369ft 126kts
03-Sep-20 16:09 33.918660 -117.551205 254 6484ft 123kts
03-Sep-20 16:10 33.908605 -117.591786 251 6044ft 130kts
03-Sep-20 16:11 33.897543 -117.633672 248 6124ft 131kts
03-Sep-20 16:12 33.887918 -117.674856 288 5746ft 139kts
03-Sep-20 16:13 33.895189 -117.699952 293 5376ft 132kts
03-Sep-20 16:14 33.910197 -117.739710 286 4365ft 128kts
03-Sep-20 16:15 33.891982 -117.768846 182 3324ft 126kts
03-Sep-20 16:16 33.866071 -117.771724 187 3025ft 112kts
03-Sep-20 16:17 33.843105 -117.776304 191 3044ft 100kts
03-Sep-20 16:18 33.815389 -117.783241 195 3018ft 98kts
03-Sep-20 16:19 33.789422 -117.795367 206 2769ft 101kts
03-Sep-20 16:20 33.765416 -117.812139 208 2157ft 100kts
03-Sep-20 16:21 33.740828 -117.827558 209 1417ft 99kts
03-Sep-20 16:22 33.717016 -117.843179 208 907ft 86kts
03-Sep-20 16:23 33.697534 -117.855403 206 419ft 72kts
03-Sep-20 16:24 33.681074 -117.865462 208 66ft 49kts
03-Sep-20 16:25 33.674406 -117.868479 159 60ft 0kts

Navigation Log

Ident Type
Flight plan parsing failed, navigation log unavailable